sensor_id;sensor_type;location;lat;lon;timestamp;temperature;humidity
17381;DHT22;8808;52.478;13.378;2023-12-20T00:01:02;7.70;99.90
17381;DHT22;8808;52.478;13.378;2023-12-20T00:03:30;7.70;99.90
17381;DHT22;8808;52.478;13.378;2023-12-20T00:05:57;7.70;99.90
17381;DHT22;8808;52.478;13.378;2023-12-20T00:08:24;7.70;99.90
17381;DHT22;8808;52.478;13.378;2023-12-20T00:10:51;7.80;99.90
17381;DHT22;8808;52.478;13.378;2023-12-20T00:13:18;7.80;99.90
17381;DHT22;8808;52.478;13.378;2023-12-20T00:15:44;7.70;99.90
17381;DHT22;8808;52.478;13.378;2023-12-20T00:18:11;7.70;99.90
17381;DHT22;8808;52.478;13.378;2023-12-20T00:20:39;7.70;99.90
17381;DHT22;8808;52.478;13.378;2023-12-20T00:23:06;7.70;99.90
17381;DHT22;8808;52.478;13.378;2023-12-20T00:25:33;7.80;99.90
17381;DHT22;8808;52.478;13.378;2023-12-20T00:28:00;7.70;99.90
17381;DHT22;8808;52.478;13.378;2023-12-20T00:30:27;7.80;99.90
17381;DHT22;8808;52.478;13.378;2023-12-20T00:32:55;7.80;99.90
17381;DHT22;8808;52.478;13.378;2023-12-20T00:35:22;7.80;99.90
17381;DHT22;8808;52.478;13.378;2023-12-20T00:37:50;7.80;99.90
17381;DHT22;8808;52.478;13.378;2023-12-20T00:40:17;7.80;99.90
17381;DHT22;8808;52.478;13.378;2023-12-20T00:42:44;7.80;99.90
17381;DHT22;8808;52.478;13.378;2023-12-20T00:45:12;7.80;99.90
17381;DHT22;8808;52.478;13.378;2023-12-20T00:47:40;7.70;99.90
17381;DHT22;8808;52.478;13.378;2023-12-20T00:50:07;7.70;99.90
17381;DHT22;8808;52.478;13.378;2023-12-20T00:52:34;7.80;99.90
17381;DHT22;8808;52.478;13.378;2023-12-20T00:55:03;7.80;99.90
17381;DHT22;8808;52.478;13.378;2023-12-20T00:57:30;7.80;99.90
17381;DHT22;8808;52.478;13.378;2023-12-20T00:59:57;7.80;99.90
17381;DHT22;8808;52.478;13.378;2023-12-20T01:02:24;7.70;99.90
17381;DHT22;8808;52.478;13.378;2023-12-20T01:04:51;7.70;99.90
17381;DHT22;8808;52.478;13.378;2023-12-20T01:07:18;7.70;99.90
17381;DHT22;8808;52.478;13.378;2023-12-20T01:09:45;7.80;99.90
17381;DHT22;8808;52.478;13.378;2023-12-20T01:12:13;7.70;99.90
17381;DHT22;8808;52.478;13.378;2023-12-20T01:14:40;7.70;99.90
17381;DHT22;8808;52.478;13.378;2023-12-20T01:17:08;7.70;99.90
17381;DHT22;8808;52.478;13.378;2023-12-20T01:19:35;7.80;99.90
17381;DHT22;8808;52.478;13.378;2023-12-20T01:22:02;7.80;99.90
17381;DHT22;8808;52.478;13.378;2023-12-20T01:24:29;7.70;99.90
17381;DHT22;8808;52.478;13.378;2023-12-20T01:26:56;7.70;99.90
17381;DHT22;8808;52.478;13.378;2023-12-20T01:29:24;7.70;99.90
17381;DHT22;8808;52.478;13.378;2023-12-20T01:31:51;7.70;99.90
17381;DHT22;8808;52.478;13.378;2023-12-20T01:34:18;7.80;99.90
17381;DHT22;8808;52.478;13.378;2023-12-20T01:36:45;7.70;99.90
17381;DHT22;8808;52.478;13.378;2023-12-20T01:39:12;7.70;99.90
17381;DHT22;8808;52.478;13.378;2023-12-20T01:41:39;7.80;99.90
17381;DHT22;8808;52.478;13.378;2023-12-20T01:44:06;7.70;99.90
17381;DHT22;8808;52.478;13.378;2023-12-20T01:46:34;7.70;99.90
17381;DHT22;8808;52.478;13.378;2023-12-20T01:49:01;7.70;99.90
17381;DHT22;8808;52.478;13.378;2023-12-20T01:51:29;7.70;99.90
17381;DHT22;8808;52.478;13.378;2023-12-20T01:53:57;7.70;99.90
17381;DHT22;8808;52.478;13.378;2023-12-20T01:56:25;7.70;99.90
17381;DHT22;8808;52.478;13.378;2023-12-20T01:58:53;7.70;99.90
17381;DHT22;8808;52.478;13.378;2023-12-20T02:03:59;7.70;99.90
17381;DHT22;8808;52.478;13.378;2023-12-20T02:06:29;7.70;99.90
17381;DHT22;8808;52.478;13.378;2023-12-20T02:08:57;7.80;99.90
17381;DHT22;8808;52.478;13.378;2023-12-20T02:11:25;7.70;99.90
17381;DHT22;8808;52.478;13.378;2023-12-20T02:13:52;7.60;99.90
17381;DHT22;8808;52.478;13.378;2023-12-20T02:16:20;7.60;99.90
17381;DHT22;8808;52.478;13.378;2023-12-20T02:18:47;7.60;99.90
17381;DHT22;8808;52.478;13.378;2023-12-20T02:21:16;7.60;99.90
17381;DHT22;8808;52.478;13.378;2023-12-20T02:23:44;7.60;99.90
17381;DHT22;8808;52.478;13.378;2023-12-20T02:26:12;7.60;99.90
17381;DHT22;8808;52.478;13.378;2023-12-20T02:28:39;7.70;99.90
17381;DHT22;8808;52.478;13.378;2023-12-20T02:31:06;7.60;99.90
17381;DHT22;8808;52.478;13.378;2023-12-20T02:33:33;7.60;99.90
17381;DHT22;8808;52.478;13.378;2023-12-20T02:36:00;7.60;99.90
17381;DHT22;8808;52.478;13.378;2023-12-20T02:38:27;7.70;99.90
17381;DHT22;8808;52.478;13.378;2023-12-20T02:40:56;7.70;99.90
17381;DHT22;8808;52.478;13.378;2023-12-20T02:43:22;7.70;99.90
17381;DHT22;8808;52.478;13.378;2023-12-20T02:45:49;7.70;99.90
17381;DHT22;8808;52.478;13.378;2023-12-20T02:48:17;7.70;99.90
17381;DHT22;8808;52.478;13.378;2023-12-20T02:50:45;7.60;99.90
17381;DHT22;8808;52.478;13.378;2023-12-20T02:53:13;7.60;99.90
17381;DHT22;8808;52.478;13.378;2023-12-20T02:55:40;7.70;99.90
17381;DHT22;8808;52.478;13.378;2023-12-20T02:58:08;7.70;99.90
17381;DHT22;8808;52.478;13.378;2023-12-20T03:00:35;7.70;99.90
17381;DHT22;8808;52.478;13.378;2023-12-20T03:03:02;7.70;99.90
17381;DHT22;8808;52.478;13.378;2023-12-20T03:05:29;7.70;99.90
17381;DHT22;8808;52.478;13.378;2023-12-20T03:07:56;7.60;99.90
17381;DHT22;8808;52.478;13.378;2023-12-20T03:10:23;7.70;99.90
17381;DHT22;8808;52.478;13.378;2023-12-20T03:12:50;7.60;99.90
17381;DHT22;8808;52.478;13.378;2023-12-20T03:15:18;7.60;99.90
17381;DHT22;8808;52.478;13.378;2023-12-20T03:17:45;7.60;99.90
17381;DHT22;8808;52.478;13.378;2023-12-20T03:20:13;7.60;99.90
17381;DHT22;8808;52.478;13.378;2023-12-20T03:22:40;7.60;99.90
17381;DHT22;8808;52.478;13.378;2023-12-20T03:25:07;7.60;99.90
17381;DHT22;8808;52.478;13.378;2023-12-20T03:27:37;7.60;99.90
17381;DHT22;8808;52.478;13.378;2023-12-20T03:30:05;7.60;99.90
17381;DHT22;8808;52.478;13.378;2023-12-20T03:32:33;7.50;99.90
17381;DHT22;8808;52.478;13.378;2023-12-20T03:35:00;7.60;99.90
17381;DHT22;8808;52.478;13.378;2023-12-20T03:37:28;7.60;99.90
17381;DHT22;8808;52.478;13.378;2023-12-20T03:39:55;7.60;99.90
17381;DHT22;8808;52.478;13.378;2023-12-20T03:42:21;7.60;99.90
17381;DHT22;8808;52.478;13.378;2023-12-20T03:44:48;7.60;99.90
17381;DHT22;8808;52.478;13.378;2023-12-20T03:47:16;7.60;99.90
17381;DHT22;8808;52.478;13.378;2023-12-20T03:49:44;7.50;99.90
17381;DHT22;8808;52.478;13.378;2023-12-20T03:52:11;7.50;99.90
17381;DHT22;8808;52.478;13.378;2023-12-20T03:54:38;7.50;99.90
17381;DHT22;8808;52.478;13.378;2023-12-20T03:57:05;7.50;99.90
17381;DHT22;8808;52.478;13.378;2023-12-20T03:59:35;7.50;99.90
17381;DHT22;8808;52.478;13.378;2023-12-20T04:02:02;7.50;99.90
17381;DHT22;8808;52.478;13.378;2023-12-20T04:04:29;7.50;99.90
17381;DHT22;8808;52.478;13.378;2023-12-20T04:06:57;7.40;99.90
17381;DHT22;8808;52.478;13.378;2023-12-20T04:09:24;7.50;99.90
17381;DHT22;8808;52.478;13.378;2023-12-20T04:11:51;7.50;99.90
17381;DHT22;8808;52.478;13.378;2023-12-20T04:14:17;7.40;99.90
17381;DHT22;8808;52.478;13.378;2023-12-20T04:16:45;7.50;99.90
17381;DHT22;8808;52.478;13.378;2023-12-20T04:19:11;7.50;99.90
17381;DHT22;8808;52.478;13.378;2023-12-20T04:21:38;7.50;99.90
17381;DHT22;8808;52.478;13.378;2023-12-20T04:24:07;7.50;99.90
17381;DHT22;8808;52.478;13.378;2023-12-20T04:26:34;7.50;99.90
17381;DHT22;8808;52.478;13.378;2023-12-20T04:29:01;7.40;99.90
17381;DHT22;8808;52.478;13.378;2023-12-20T04:31:28;7.20;99.90
17381;DHT22;8808;52.478;13.378;2023-12-20T04:33:55;7.30;99.90
17381;DHT22;8808;52.478;13.378;2023-12-20T04:36:22;7.20;99.90
17381;DHT22;8808;52.478;13.378;2023-12-20T04:38:50;7.10;99.90
17381;DHT22;8808;52.478;13.378;2023-12-20T04:41:19;7.00;99.90
17381;DHT22;8808;52.478;13.378;2023-12-20T04:43:45;6.90;99.90
17381;DHT22;8808;52.478;13.378;2023-12-20T04:46:12;6.90;99.90
17381;DHT22;8808;52.478;13.378;2023-12-20T04:48:39;6.90;99.90
17381;DHT22;8808;52.478;13.378;2023-12-20T04:51:06;6.90;99.90
17381;DHT22;8808;52.478;13.378;2023-12-20T04:53:33;6.70;99.90
17381;DHT22;8808;52.478;13.378;2023-12-20T04:56:00;6.80;99.90
17381;DHT22;8808;52.478;13.378;2023-12-20T04:58:28;6.80;99.90
17381;DHT22;8808;52.478;13.378;2023-12-20T05:00:55;6.90;99.90
17381;DHT22;8808;52.478;13.378;2023-12-20T05:03:22;6.80;99.90
17381;DHT22;8808;52.478;13.378;2023-12-20T05:05:49;6.80;99.90
17381;DHT22;8808;52.478;13.378;2023-12-20T05:08:16;6.80;99.90
17381;DHT22;8808;52.478;13.378;2023-12-20T05:10:43;6.80;99.90
17381;DHT22;8808;52.478;13.378;2023-12-20T05:13:10;6.80;99.90
17381;DHT22;8808;52.478;13.378;2023-12-20T05:15:38;6.70;99.90
17381;DHT22;8808;52.478;13.378;2023-12-20T05:18:05;6.80;99.90
17381;DHT22;8808;52.478;13.378;2023-12-20T05:20:32;6.90;99.90
17381;DHT22;8808;52.478;13.378;2023-12-20T05:22:59;6.90;99.90
17381;DHT22;8808;52.478;13.378;2023-12-20T05:25:26;6.80;99.90
17381;DHT22;8808;52.478;13.378;2023-12-20T05:27:53;6.70;99.90
17381;DHT22;8808;52.478;13.378;2023-12-20T05:30:20;6.70;99.90
17381;DHT22;8808;52.478;13.378;2023-12-20T05:32:48;6.70;99.90
17381;DHT22;8808;52.478;13.378;2023-12-20T05:35:15;6.60;99.90
17381;DHT22;8808;52.478;13.378;2023-12-20T05:37:43;6.60;99.90
17381;DHT22;8808;52.478;13.378;2023-12-20T05:40:11;6.70;99.90
17381;DHT22;8808;52.478;13.378;2023-12-20T05:42:38;6.60;99.90
17381;DHT22;8808;52.478;13.378;2023-12-20T05:45:05;6.60;99.90
17381;DHT22;8808;52.478;13.378;2023-12-20T05:47:32;6.50;99.90
17381;DHT22;8808;52.478;13.378;2023-12-20T05:50:00;6.40;99.90
17381;DHT22;8808;52.478;13.378;2023-12-20T05:52:27;6.50;99.90
17381;DHT22;8808;52.478;13.378;2023-12-20T05:54:54;6.50;99.90
17381;DHT22;8808;52.478;13.378;2023-12-20T05:57:23;6.50;99.90
17381;DHT22;8808;52.478;13.378;2023-12-20T05:59:50;6.40;99.90
17381;DHT22;8808;52.478;13.378;2023-12-20T06:02:17;6.40;99.90
17381;DHT22;8808;52.478;13.378;2023-12-20T06:04:44;6.30;99.90
17381;DHT22;8808;52.478;13.378;2023-12-20T06:07:13;6.30;99.90
17381;DHT22;8808;52.478;13.378;2023-12-20T06:09:40;6.20;99.90
17381;DHT22;8808;52.478;13.378;2023-12-20T06:12:08;6.30;99.90
17381;DHT22;8808;52.478;13.378;2023-12-20T06:14:35;6.40;99.90
17381;DHT22;8808;52.478;13.378;2023-12-20T06:17:02;6.20;99.90
17381;DHT22;8808;52.478;13.378;2023-12-20T06:19:29;6.10;99.90
17381;DHT22;8808;52.478;13.378;2023-12-20T06:21:56;6.30;99.90
17381;DHT22;8808;52.478;13.378;2023-12-20T06:24:24;6.40;99.90
17381;DHT22;8808;52.478;13.378;2023-12-20T06:26:53;6.30;99.90
17381;DHT22;8808;52.478;13.378;2023-12-20T06:29:20;6.30;99.90
17381;DHT22;8808;52.478;13.378;2023-12-20T06:31:47;6.30;99.90
17381;DHT22;8808;52.478;13.378;2023-12-20T06:34:14;6.30;99.90
17381;DHT22;8808;52.478;13.378;2023-12-20T06:36:41;6.30;99.90
17381;DHT22;8808;52.478;13.378;2023-12-20T06:39:08;6.30;99.90
17381;DHT22;8808;52.478;13.378;2023-12-20T06:41:39;6.40;99.90
17381;DHT22;8808;52.478;13.378;2023-12-20T06:44:06;6.50;99.90
17381;DHT22;8808;52.478;13.378;2023-12-20T06:46:33;6.40;99.90
17381;DHT22;8808;52.478;13.378;2023-12-20T06:49:00;6.30;99.90
17381;DHT22;8808;52.478;13.378;2023-12-20T06:51:27;6.40;99.90
17381;DHT22;8808;52.478;13.378;2023-12-20T06:53:54;6.40;99.90
17381;DHT22;8808;52.478;13.378;2023-12-20T06:56:21;6.40;99.90
17381;DHT22;8808;52.478;13.378;2023-12-20T06:58:49;6.40;99.90
17381;DHT22;8808;52.478;13.378;2023-12-20T07:01:16;6.30;99.90
17381;DHT22;8808;52.478;13.378;2023-12-20T07:03:44;6.40;99.90
17381;DHT22;8808;52.478;13.378;2023-12-20T07:06:11;6.30;99.90
17381;DHT22;8808;52.478;13.378;2023-12-20T07:08:40;6.50;99.90
17381;DHT22;8808;52.478;13.378;2023-12-20T07:11:07;6.40;99.90
17381;DHT22;8808;52.478;13.378;2023-12-20T07:13:34;6.40;99.90
17381;DHT22;8808;52.478;13.378;2023-12-20T07:16:03;6.50;99.90
17381;DHT22;8808;52.478;13.378;2023-12-20T07:18:30;6.50;99.90
17381;DHT22;8808;52.478;13.378;2023-12-20T07:20:57;6.60;99.90
17381;DHT22;8808;52.478;13.378;2023-12-20T07:23:24;6.60;99.90
17381;DHT22;8808;52.478;13.378;2023-12-20T07:25:52;6.50;99.90
17381;DHT22;8808;52.478;13.378;2023-12-20T07:28:19;6.50;99.90
17381;DHT22;8808;52.478;13.378;2023-12-20T07:30:46;6.50;99.90
17381;DHT22;8808;52.478;13.378;2023-12-20T07:33:14;6.50;99.90
17381;DHT22;8808;52.478;13.378;2023-12-20T07:35:41;6.50;99.90
17381;DHT22;8808;52.478;13.378;2023-12-20T07:38:08;6.50;99.90
17381;DHT22;8808;52.478;13.378;2023-12-20T07:40:35;6.60;99.90
17381;DHT22;8808;52.478;13.378;2023-12-20T07:43:02;6.60;99.90
17381;DHT22;8808;52.478;13.378;2023-12-20T07:45:29;6.60;99.90
17381;DHT22;8808;52.478;13.378;2023-12-20T07:47:56;6.60;99.90
17381;DHT22;8808;52.478;13.378;2023-12-20T07:50:25;6.50;99.90
17381;DHT22;8808;52.478;13.378;2023-12-20T07:52:52;6.60;99.90
17381;DHT22;8808;52.478;13.378;2023-12-20T07:55:19;6.60;99.90
17381;DHT22;8808;52.478;13.378;2023-12-20T07:57:45;6.60;99.90
17381;DHT22;8808;52.478;13.378;2023-12-20T08:00:13;6.50;99.90
17381;DHT22;8808;52.478;13.378;2023-12-20T08:02:40;6.60;99.90
17381;DHT22;8808;52.478;13.378;2023-12-20T08:05:07;6.60;99.90
17381;DHT22;8808;52.478;13.378;2023-12-20T08:07:36;6.60;99.90
17381;DHT22;8808;52.478;13.378;2023-12-20T08:10:04;6.60;99.90
17381;DHT22;8808;52.478;13.378;2023-12-20T08:12:31;6.60;99.90
17381;DHT22;8808;52.478;13.378;2023-12-20T08:14:59;6.70;99.90
17381;DHT22;8808;52.478;13.378;2023-12-20T08:17:26;6.80;99.90
17381;DHT22;8808;52.478;13.378;2023-12-20T08:19:53;6.70;99.90
17381;DHT22;8808;52.478;13.378;2023-12-20T08:22:20;6.70;99.90
17381;DHT22;8808;52.478;13.378;2023-12-20T08:24:48;6.70;99.90
17381;DHT22;8808;52.478;13.378;2023-12-20T08:27:15;6.60;99.90
17381;DHT22;8808;52.478;13.378;2023-12-20T08:29:43;6.80;99.90
17381;DHT22;8808;52.478;13.378;2023-12-20T08:32:11;6.70;99.90
17381;DHT22;8808;52.478;13.378;2023-12-20T08:34:38;6.60;99.90
17381;DHT22;8808;52.478;13.378;2023-12-20T08:37:05;6.70;99.90
17381;DHT22;8808;52.478;13.378;2023-12-20T08:39:32;6.70;99.90
17381;DHT22;8808;52.478;13.378;2023-12-20T08:42:00;6.80;99.90
17381;DHT22;8808;52.478;13.378;2023-12-20T08:44:27;6.80;99.90
17381;DHT22;8808;52.478;13.378;2023-12-20T08:46:54;7.60;99.90
17381;DHT22;8808;52.478;13.378;2023-12-20T08:49:22;7.60;99.90
17381;DHT22;8808;52.478;13.378;2023-12-20T08:51:49;7.30;99.90
17381;DHT22;8808;52.478;13.378;2023-12-20T08:54:16;7.80;99.90
17381;DHT22;8808;52.478;13.378;2023-12-20T08:56:44;7.10;99.90
17381;DHT22;8808;52.478;13.378;2023-12-20T08:59:13;7.00;99.90
17381;DHT22;8808;52.478;13.378;2023-12-20T09:01:40;7.10;99.90
17381;DHT22;8808;52.478;13.378;2023-12-20T09:04:06;6.90;99.90
17381;DHT22;8808;52.478;13.378;2023-12-20T09:06:33;6.90;99.90
17381;DHT22;8808;52.478;13.378;2023-12-20T09:09:00;6.90;99.90
17381;DHT22;8808;52.478;13.378;2023-12-20T09:11:28;7.00;99.90
17381;DHT22;8808;52.478;13.378;2023-12-20T09:13:54;7.00;99.90
17381;DHT22;8808;52.478;13.378;2023-12-20T09:16:23;7.10;99.90
17381;DHT22;8808;52.478;13.378;2023-12-20T09:18:50;7.10;99.90
17381;DHT22;8808;52.478;13.378;2023-12-20T09:21:17;7.00;99.90
17381;DHT22;8808;52.478;13.378;2023-12-20T09:23:44;7.10;99.90
17381;DHT22;8808;52.478;13.378;2023-12-20T09:26:11;7.10;99.90
17381;DHT22;8808;52.478;13.378;2023-12-20T09:28:38;7.10;99.90
17381;DHT22;8808;52.478;13.378;2023-12-20T09:31:06;7.10;99.90
17381;DHT22;8808;52.478;13.378;2023-12-20T09:33:35;7.00;99.90
17381;DHT22;8808;52.478;13.378;2023-12-20T09:36:02;7.00;99.90
17381;DHT22;8808;52.478;13.378;2023-12-20T09:38:29;7.10;99.90
17381;DHT22;8808;52.478;13.378;2023-12-20T09:40:56;7.10;99.90
17381;DHT22;8808;52.478;13.378;2023-12-20T09:43:24;7.00;99.90
17381;DHT22;8808;52.478;13.378;2023-12-20T09:45:53;7.00;99.90
17381;DHT22;8808;52.478;13.378;2023-12-20T09:48:20;7.10;99.90
17381;DHT22;8808;52.478;13.378;2023-12-20T09:50:48;7.10;99.90
17381;DHT22;8808;52.478;13.378;2023-12-20T09:53:16;7.10;99.90
17381;DHT22;8808;52.478;13.378;2023-12-20T09:55:44;7.20;99.90
17381;DHT22;8808;52.478;13.378;2023-12-20T09:58:11;7.10;99.90
17381;DHT22;8808;52.478;13.378;2023-12-20T10:00:38;7.20;99.90
17381;DHT22;8808;52.478;13.378;2023-12-20T10:03:06;7.30;99.90
17381;DHT22;8808;52.478;13.378;2023-12-20T10:05:34;7.30;99.90
17381;DHT22;8808;52.478;13.378;2023-12-20T10:08:03;7.20;99.90
17381;DHT22;8808;52.478;13.378;2023-12-20T10:10:30;7.30;99.90
17381;DHT22;8808;52.478;13.378;2023-12-20T10:13:05;7.30;99.90
17381;DHT22;8808;52.478;13.378;2023-12-20T10:15:33;7.30;99.90
17381;DHT22;8808;52.478;13.378;2023-12-20T10:18:00;7.30;99.90
17381;DHT22;8808;52.478;13.378;2023-12-20T10:20:27;7.30;99.90
17381;DHT22;8808;52.478;13.378;2023-12-20T10:22:55;7.30;99.90
17381;DHT22;8808;52.478;13.378;2023-12-20T10:25:24;7.40;99.90
17381;DHT22;8808;52.478;13.378;2023-12-20T10:28:08;7.40;99.90
17381;DHT22;8808;52.478;13.378;2023-12-20T10:30:36;7.30;99.90
17381;DHT22;8808;52.478;13.378;2023-12-20T10:33:03;7.30;99.90
17381;DHT22;8808;52.478;13.378;2023-12-20T10:35:31;7.40;99.90
17381;DHT22;8808;52.478;13.378;2023-12-20T10:38:03;7.50;99.90
17381;DHT22;8808;52.478;13.378;2023-12-20T10:40:34;7.40;99.90
17381;DHT22;8808;52.478;13.378;2023-12-20T10:43:04;7.40;99.90
17381;DHT22;8808;52.478;13.378;2023-12-20T10:45:31;7.50;99.90
17381;DHT22;8808;52.478;13.378;2023-12-20T10:47:58;7.50;99.90
17381;DHT22;8808;52.478;13.378;2023-12-20T10:50:27;7.50;99.90
17381;DHT22;8808;52.478;13.378;2023-12-20T10:52:54;7.50;99.90
17381;DHT22;8808;52.478;13.378;2023-12-20T10:55:22;7.50;99.90
17381;DHT22;8808;52.478;13.378;2023-12-20T10:57:52;7.40;99.90
17381;DHT22;8808;52.478;13.378;2023-12-20T11:00:19;7.60;99.90
17381;DHT22;8808;52.478;13.378;2023-12-20T11:02:49;7.80;99.90
17381;DHT22;8808;52.478;13.378;2023-12-20T11:05:26;7.60;99.90
17381;DHT22;8808;52.478;13.378;2023-12-20T11:08:00;7.60;99.90
17381;DHT22;8808;52.478;13.378;2023-12-20T11:10:31;7.60;99.90
17381;DHT22;8808;52.478;13.378;2023-12-20T11:13:08;7.60;99.90
17381;DHT22;8808;52.478;13.378;2023-12-20T11:15:36;7.60;99.90
17381;DHT22;8808;52.478;13.378;2023-12-20T11:18:04;7.60;99.90
17381;DHT22;8808;52.478;13.378;2023-12-20T11:20:36;7.50;99.90
17381;DHT22;8808;52.478;13.378;2023-12-20T11:23:04;7.50;99.90
17381;DHT22;8808;52.478;13.378;2023-12-20T11:25:46;7.50;99.90
17381;DHT22;8808;52.478;13.378;2023-12-20T11:28:15;7.50;99.90
17381;DHT22;8808;52.478;13.378;2023-12-20T11:30:47;7.50;99.90
17381;DHT22;8808;52.478;13.378;2023-12-20T11:33:14;7.50;99.90
17381;DHT22;8808;52.478;13.378;2023-12-20T11:35:42;7.50;99.90
17381;DHT22;8808;52.478;13.378;2023-12-20T11:38:09;7.60;99.90
17381;DHT22;8808;52.478;13.378;2023-12-20T11:40:37;7.40;99.90
17381;DHT22;8808;52.478;13.378;2023-12-20T11:43:04;7.40;99.90
17381;DHT22;8808;52.478;13.378;2023-12-20T11:45:33;7.40;99.90
17381;DHT22;8808;52.478;13.378;2023-12-20T11:48:02;7.40;99.90
17381;DHT22;8808;52.478;13.378;2023-12-20T11:50:29;7.40;99.90
17381;DHT22;8808;52.478;13.378;2023-12-20T11:52:56;7.40;99.90
17381;DHT22;8808;52.478;13.378;2023-12-20T11:55:24;7.40;99.90
17381;DHT22;8808;52.478;13.378;2023-12-20T11:57:51;7.40;99.90
17381;DHT22;8808;52.478;13.378;2023-12-20T12:00:18;7.50;99.90
17381;DHT22;8808;52.478;13.378;2023-12-20T12:02:57;7.40;99.90
17381;DHT22;8808;52.478;13.378;2023-12-20T12:05:23;7.40;99.90
17381;DHT22;8808;52.478;13.378;2023-12-20T12:07:51;7.40;99.90
17381;DHT22;8808;52.478;13.378;2023-12-20T12:10:18;7.40;99.90
17381;DHT22;8808;52.478;13.378;2023-12-20T12:12:45;7.50;99.90
17381;DHT22;8808;52.478;13.378;2023-12-20T12:15:12;7.40;99.90
17381;DHT22;8808;52.478;13.378;2023-12-20T12:17:39;7.50;99.90
17381;DHT22;8808;52.478;13.378;2023-12-20T12:20:08;7.50;99.90
17381;DHT22;8808;52.478;13.378;2023-12-20T12:22:36;7.50;99.90
17381;DHT22;8808;52.478;13.378;2023-12-20T12:25:13;7.50;99.90
17381;DHT22;8808;52.478;13.378;2023-12-20T12:27:40;7.60;99.90
17381;DHT22;8808;52.478;13.378;2023-12-20T12:30:09;7.60;99.90
17381;DHT22;8808;52.478;13.378;2023-12-20T12:32:38;7.50;99.90
17381;DHT22;8808;52.478;13.378;2023-12-20T12:35:07;7.50;99.90
17381;DHT22;8808;52.478;13.378;2023-12-20T12:37:35;7.40;99.90
17381;DHT22;8808;52.478;13.378;2023-12-20T12:40:04;7.40;99.90
17381;DHT22;8808;52.478;13.378;2023-12-20T12:42:31;7.30;99.90
17381;DHT22;8808;52.478;13.378;2023-12-20T12:44:58;7.30;99.90
17381;DHT22;8808;52.478;13.378;2023-12-20T12:47:25;7.30;99.90
17381;DHT22;8808;52.478;13.378;2023-12-20T12:49:52;7.30;99.90
17381;DHT22;8808;52.478;13.378;2023-12-20T12:52:21;7.20;99.90
17381;DHT22;8808;52.478;13.378;2023-12-20T12:54:48;7.10;99.90
17381;DHT22;8808;52.478;13.378;2023-12-20T12:57:15;7.20;99.90
17381;DHT22;8808;52.478;13.378;2023-12-20T12:59:43;7.30;99.90
17381;DHT22;8808;52.478;13.378;2023-12-20T13:02:11;7.20;99.90
17381;DHT22;8808;52.478;13.378;2023-12-20T13:04:38;7.20;99.90
17381;DHT22;8808;52.478;13.378;2023-12-20T13:07:05;7.10;99.90
17381;DHT22;8808;52.478;13.378;2023-12-20T13:09:34;7.10;99.90
17381;DHT22;8808;52.478;13.378;2023-12-20T13:12:01;7.20;99.90
17381;DHT22;8808;52.478;13.378;2023-12-20T13:14:29;7.10;99.90
17381;DHT22;8808;52.478;13.378;2023-12-20T13:16:56;7.20;99.90
17381;DHT22;8808;52.478;13.378;2023-12-20T13:19:23;7.20;99.90
17381;DHT22;8808;52.478;13.378;2023-12-20T13:21:50;7.10;99.90
17381;DHT22;8808;52.478;13.378;2023-12-20T13:24:17;7.10;99.90
17381;DHT22;8808;52.478;13.378;2023-12-20T13:26:45;7.10;99.90
17381;DHT22;8808;52.478;13.378;2023-12-20T13:29:12;7.00;99.90
17381;DHT22;8808;52.478;13.378;2023-12-20T13:31:39;6.90;99.90
17381;DHT22;8808;52.478;13.378;2023-12-20T13:34:07;6.80;99.90
17381;DHT22;8808;52.478;13.378;2023-12-20T13:36:34;6.80;99.90
17381;DHT22;8808;52.478;13.378;2023-12-20T13:39:02;6.80;99.90
17381;DHT22;8808;52.478;13.378;2023-12-20T13:41:30;6.60;99.90
17381;DHT22;8808;52.478;13.378;2023-12-20T13:43:59;6.50;99.90
17381;DHT22;8808;52.478;13.378;2023-12-20T13:46:27;6.50;99.90
17381;DHT22;8808;52.478;13.378;2023-12-20T13:48:54;6.50;99.90
17381;DHT22;8808;52.478;13.378;2023-12-20T13:51:21;6.50;99.90
17381;DHT22;8808;52.478;13.378;2023-12-20T13:53:48;6.50;99.90
17381;DHT22;8808;52.478;13.378;2023-12-20T13:56:15;6.40;99.90
17381;DHT22;8808;52.478;13.378;2023-12-20T13:58:42;6.50;99.90
17381;DHT22;8808;52.478;13.378;2023-12-20T14:01:10;6.50;99.90
17381;DHT22;8808;52.478;13.378;2023-12-20T14:03:37;6.40;99.90
17381;DHT22;8808;52.478;13.378;2023-12-20T14:06:04;6.50;99.90
17381;DHT22;8808;52.478;13.378;2023-12-20T14:08:31;6.40;99.90
17381;DHT22;8808;52.478;13.378;2023-12-20T14:10:58;6.30;99.90
17381;DHT22;8808;52.478;13.378;2023-12-20T14:13:26;6.30;99.90
17381;DHT22;8808;52.478;13.378;2023-12-20T14:15:53;6.30;99.90
17381;DHT22;8808;52.478;13.378;2023-12-20T14:18:22;6.30;99.90
17381;DHT22;8808;52.478;13.378;2023-12-20T14:20:49;6.20;99.90
17381;DHT22;8808;52.478;13.378;2023-12-20T14:23:16;6.20;99.90
17381;DHT22;8808;52.478;13.378;2023-12-20T14:25:43;6.20;99.90
17381;DHT22;8808;52.478;13.378;2023-12-20T14:28:10;6.30;99.90
17381;DHT22;8808;52.478;13.378;2023-12-20T14:30:39;6.10;99.90
17381;DHT22;8808;52.478;13.378;2023-12-20T14:33:07;6.00;99.90
17381;DHT22;8808;52.478;13.378;2023-12-20T14:35:35;6.10;99.90
17381;DHT22;8808;52.478;13.378;2023-12-20T14:38:02;6.10;99.90
17381;DHT22;8808;52.478;13.378;2023-12-20T14:40:29;6.20;99.90
17381;DHT22;8808;52.478;13.378;2023-12-20T14:42:56;6.20;99.90
17381;DHT22;8808;52.478;13.378;2023-12-20T14:45:23;6.10;99.90
17381;DHT22;8808;52.478;13.378;2023-12-20T14:47:50;6.60;99.90
17381;DHT22;8808;52.478;13.378;2023-12-20T14:50:17;6.30;99.90
17381;DHT22;8808;52.478;13.378;2023-12-20T14:52:45;6.30;99.90
17381;DHT22;8808;52.478;13.378;2023-12-20T14:55:13;6.20;99.90
17381;DHT22;8808;52.478;13.378;2023-12-20T14:57:40;6.40;99.90
17381;DHT22;8808;52.478;13.378;2023-12-20T15:00:07;6.30;99.90
17381;DHT22;8808;52.478;13.378;2023-12-20T15:02:35;6.20;99.90
17381;DHT22;8808;52.478;13.378;2023-12-20T15:05:01;6.10;99.90
17381;DHT22;8808;52.478;13.378;2023-12-20T15:07:28;6.10;99.90
17381;DHT22;8808;52.478;13.378;2023-12-20T15:09:57;6.20;99.90
17381;DHT22;8808;52.478;13.378;2023-12-20T15:12:24;6.20;99.90
17381;DHT22;8808;52.478;13.378;2023-12-20T15:14:51;6.10;99.90
17381;DHT22;8808;52.478;13.378;2023-12-20T15:17:17;6.20;99.90
17381;DHT22;8808;52.478;13.378;2023-12-20T15:19:44;6.20;99.90
17381;DHT22;8808;52.478;13.378;2023-12-20T15:22:12;6.30;99.90
17381;DHT22;8808;52.478;13.378;2023-12-20T15:24:39;6.20;99.90
17381;DHT22;8808;52.478;13.378;2023-12-20T15:27:09;6.20;99.90
17381;DHT22;8808;52.478;13.378;2023-12-20T15:29:36;6.10;99.90
17381;DHT22;8808;52.478;13.378;2023-12-20T15:32:04;6.10;99.90
17381;DHT22;8808;52.478;13.378;2023-12-20T15:34:31;6.20;99.90
17381;DHT22;8808;52.478;13.378;2023-12-20T15:36:58;6.10;99.90
17381;DHT22;8808;52.478;13.378;2023-12-20T15:39:25;6.10;99.90
17381;DHT22;8808;52.478;13.378;2023-12-20T15:41:53;6.10;99.90
17381;DHT22;8808;52.478;13.378;2023-12-20T15:44:21;6.10;99.90
17381;DHT22;8808;52.478;13.378;2023-12-20T15:46:48;6.10;99.90
17381;DHT22;8808;52.478;13.378;2023-12-20T15:49:15;6.10;99.90